Terminal Aerodrome Forecast
Issued by NWS

Current Version | Previous Version | Graphics & Text | Print | Product List | Glossary On
Versions: 1 2 3 4 5 6 7 8 9 10 11 12 13 14 15 16 17 18 19 20 21 22 23 24 25
000
FTUS41 KRNK 201140
TAFLWB
TAF
KLWB 201140Z 2012/2112 00000KT 6SM BR SCT090 BKN250
     FM201300 00000KT P6SM SCT120
     FM201900 VRB03KT P6SM VCTS BKN050CB
     FM202200 08003KT 6SM -SHRA SCT040 OVC070
     FM210500 10006KT 4SM BR SCT004 OVC015=

USA.gov is the U.S. government's official web portal to all federal, state and local government web resources and services.